Time;durP1;ratioP1;P1;durP2;ratioP2;P2;SDS_P1;SDS_P2;PMS_P1;PMS_P2;Temp;Humidity;BMP_temperature;BMP_pressure;BME280_temperature;BME280_humidity;BME280_pressure;Samples;Min_cycle;Max_cycle;Signal;HPM_P1;HPM_P2
2023/08/13 00:01:31;;;;;;;;;;;;;;;21.88;89.11;101170.13;4172230;28;20012;-69
2023/08/13 00:03:33;;;;;;;;;;;;;;;21.87;89.33;101165.69;4159997;28;19983;-70
2023/08/13 00:05:36;;;;;;;;;;;;;;;21.87;88.88;101165.69;4170842;28;20291;-70
2023/08/13 00:07:37;;;;;;;;;;;;;;;21.88;88.16;101161.03;4171451;28;20028;-69
2023/08/13 00:09:41;;;;;;;;;;;;;;;21.87;88.48;101157.44;4170762;28;20012;-69
2023/08/13 00:11:43;;;;;;;;;;;;;;;21.89;88.60;101165.44;4154615;28;20033;-70
2023/08/13 00:13:43;;;;;;;;;;;;;;;21.89;88.12;101160.78;4171326;28;20400;-70
2023/08/13 00:15:47;;;;;;;;;;;;;;;21.89;88.34;101159.94;4170929;28;20491;-70
2023/08/13 00:17:49;;;;;;;;;;;;;;;21.91;87.65;101166.03;4171925;28;20363;-70
2023/08/13 00:19:51;;;;;;;;;;;;;;;21.92;86.94;101174.03;4171562;28;20048;-70
2023/08/13 00:21:53;;;;;;;;;;;;;;;21.93;87.17;101172.97;4170949;28;20039;-70
2023/08/13 00:23:55;;;;;;;;;;;;;;;21.92;87.89;101182.28;4171014;28;20044;-70
2023/08/13 00:25:57;;;;;;;;;;;;;;;21.92;87.58;101189.72;4171289;28;19970;-70
2023/08/13 00:27:59;;;;;;;;;;;;;;;21.92;87.22;101190.53;4171748;28;20008;-69
2023/08/13 00:30:01;;;;;;;;;;;;;;;21.91;87.59;101188.88;4152971;28;20560;-69
2023/08/13 00:32:05;;;;;;;;;;;;;;;21.90;87.48;101197.38;4160326;28;20024;-70
2023/08/13 00:34:07;;;;;;;;;;;;;;;21.92;86.91;101200.72;4173178;28;20024;-70
2023/08/13 00:36:09;;;;;;;;;;;;;;;21.93;86.32;101191.41;4143642;28;19960;-70
2023/08/13 00:38:12;;;;;;;;;;;;;;;21.92;87.31;101200.72;4153635;28;20009;-70
2023/08/13 00:40:14;;;;;;;;;;;;;;;21.88;87.91;101191.25;4153719;28;20442;-70
2023/08/13 00:42:16;;;;;;;;;;;;;;;21.85;87.54;101192.59;4170230;28;20020;-70
2023/08/13 00:44:18;;;;;;;;;;;;;;;21.86;87.19;101194.25;4153055;28;20008;-70
2023/08/13 00:46:19;;;;;;;;;;;;;;;21.86;87.89;101202.50;4171105;28;19929;-70
2023/08/13 00:48:22;;;;;;;;;;;;;;;21.86;87.20;101202.50;4171753;28;19968;-69
2023/08/13 00:50:24;;;;;;;;;;;;;;;21.86;86.63;101194.25;4171316;28;20016;-70
2023/08/13 00:52:26;;;;;;;;;;;;;;;21.88;86.38;101199.50;4170501;28;20368;-70
2023/08/13 00:54:28;;;;;;;;;;;;;;;21.91;86.33;101204.53;4160168;28;20028;-69
2023/08/13 00:56:32;;;;;;;;;;;;;;;21.91;86.12;101210.03;4152315;28;20021;-70
2023/08/13 00:58:33;;;;;;;;;;;;;;;21.92;85.80;101214.47;4163661;28;20577;-70
2023/08/13 01:00:35;;;;;;;;;;;;;;;21.89;86.89;101228.69;4157197;28;19941;-70
2023/08/13 01:02:37;;;;;;;;;;;;;;;21.85;87.36;101222.84;4174520;28;20020;-70
2023/08/13 01:04:41;;;;;;;;;;;;;;;21.84;87.11;101220.34;4175874;28;20012;-70
2023/08/13 01:06:43;;;;;;;;;;;;;;;21.81;87.33;101224.41;4174517;28;19924;-70
2023/08/13 01:08:49;;;;;;;;;;;;;;;21.77;87.83;101234.19;4174632;28;20040;-70
2023/08/13 01:10:52;;;;;;;;;;;;;;;21.71;88.54;101236.00;4174834;28;20360;-70
2023/08/13 01:12:56;;;;;;;;;;;;;;;21.67;88.84;101236.72;4155348;28;20036;-70
2023/08/13 01:15:02;;;;;;;;;;;;;;;21.63;88.54;101230.88;4178840;28;20024;-70
2023/08/13 01:17:04;;;;;;;;;;;;;;;21.60;88.97;101228.59;4175360;28;20028;-70
2023/08/13 01:19:08;;;;;;;;;;;;;;;21.61;88.13;101233.00;4174826;28;20311;-70
2023/08/13 01:21:13;;;;;;;;;;;;;;;21.63;87.39;101230.88;4156065;28;20016;-70
2023/08/13 01:23:16;;;;;;;;;;;;;;;21.66;87.26;101229.53;4157199;28;20012;-69
2023/08/13 01:25:19;;;;;;;;;;;;;;;21.66;87.04;101229.53;4162873;28;20105;-70
2023/08/13 01:27:21;;;;;;;;;;;;;;;21.67;86.63;101237.53;4174545;28;20040;-70
2023/08/13 01:29:26;;;;;;;;;;;;;;;21.70;86.45;101233.50;4172264;28;20031;-70
2023/08/13 01:31:29;;;;;;;;;;;;;;;21.68;86.58;101236.47;4174334;28;20019;-70
2023/08/13 01:33:32;;;;;;;;;;;;;;;21.64;87.53;101237.19;4179905;28;20011;-70
2023/08/13 01:35:34;;;;;;;;;;;;;;;21.62;87.22;101240.19;4173991;28;20023;-70
2023/08/13 01:37:36;;;;;;;;;;;;;;;21.58;87.72;101236.22;4157398;28;20016;-70
2023/08/13 01:39:39;;;;;;;;;;;;;;;21.56;87.88;101238.38;4162690;28;20039;-70
2023/08/13 01:41:43;;;;;;;;;;;;;;;21.53;87.72;101241.59;4173951;28;20091;-69
2023/08/13 01:43:45;;;;;;;;;;;;;;;21.53;87.27;101244.34;4156030;28;20483;-70
2023/08/13 01:45:47;;;;;;;;;;;;;;;21.50;87.99;101248.41;4155816;28;20020;-70
2023/08/13 01:47:49;;;;;;;;;;;;;;;21.46;88.22;101247.19;4172994;28;20376;-69
2023/08/13 01:49:51;;;;;;;;;;;;;;;21.46;87.54;101249.94;4173301;28;20021;-69
2023/08/13 01:51:54;;;;;;;;;;;;;;;21.45;87.44;101253.75;4154897;28;20028;-69
2023/08/13 01:53:56;;;;;;;;;;;;;;;21.45;87.67;101261.16;4153324;28;19937;-69
2023/08/13 01:56:00;;;;;;;;;;;;;;;21.43;87.35;101259.50;4145699;28;20020;-69
2023/08/13 01:58:02;;;;;;;;;;;;;;;21.38;88.74;101256.63;4163331;28;20386;-69
2023/08/13 02:00:07;;;;;;;;;;;;;;;21.33;89.10;101258.41;4177401;28;20406;-69
2023/08/13 02:02:08;;;;;;;;;;;;;;;21.31;89.08;101255.06;4173325;28;20028;-69
2023/08/13 02:04:15;;;;;;;;;;;;;;;21.29;88.63;101249.78;4173233;28;19964;-69
2023/08/13 02:06:19;;;;;;;;;;;;;;;21.32;88.08;101251.25;4154423;28;20078;-70
2023/08/13 02:08:24;;;;;;;;;;;;;;;21.33;87.89;101256.50;4172537;28;20391;-69
2023/08/13 02:10:27;;;;;;;;;;;;;;;21.34;88.06;101252.66;4154447;28;19929;-69
2023/08/13 02:12:33;;;;;;;;;;;;;;;21.36;87.78;101256.03;4138790;28;19926;-69
2023/08/13 02:14:36;;;;;;;;;;;;;;;21.37;87.86;101256.84;4170495;28;20427;-69
2023/08/13 02:16:37;;;;;;;;;;;;;;;21.35;88.21;101256.28;4162305;28;19971;-70
2023/08/13 02:18:42;;;;;;;;;;;;;;;21.36;87.60;101257.91;4171041;28;20365;-69
2023/08/13 02:20:48;;;;;;;;;;;;;;;21.37;87.59;101265.09;4162478;28;19988;-69
2023/08/13 02:22:51;;;;;;;;;;;;;;;21.38;87.23;101256.63;4171413;28;19928;-70
2023/08/13 02:24:53;;;;;;;;;;;;;;;21.39;87.26;101269.28;4172717;28;20017;-69
2023/08/13 02:26:55;;;;;;;;;;;;;;;21.41;87.24;101269.03;4155641;28;20031;-70
2023/08/13 02:28:58;;;;;;;;;;;;;;;21.40;87.67;101275.63;4173317;28;19932;-70
2023/08/13 02:31:00;;;;;;;;;;;;;;;21.41;87.16;101280.88;4172383;28;20442;-70
2023/08/13 02:33:03;;;;;;;;;;;;;;;21.43;86.72;101269.66;4172967;28;20019;-70
2023/08/13 02:35:06;;;;;;;;;;;;;;;21.43;87.40;101283.38;4162296;28;20020;-70
2023/08/13 02:37:09;;;;;;;;;;;;;;;21.42;87.17;101277.03;4174025;28;20012;-70
2023/08/13 02:39:11;;;;;;;;;;;;;;;21.42;87.02;101271.53;4173084;28;20024;-70
2023/08/13 02:41:13;;;;;;;;;;;;;;;21.45;86.75;101274.91;4154167;28;20017;-70
2023/08/13 02:43:15;;;;;;;;;;;;;;;21.46;86.51;101276.56;4172797;28;20020;-69
2023/08/13 02:45:19;;;;;;;;;;;;;;;21.47;86.34;101275.50;4172012;28;20027;-70
2023/08/13 02:47:21;;;;;;;;;;;;;;;21.49;86.23;101279.72;4155341;28;20016;-70
2023/08/13 02:49:23;;;;;;;;;;;;;;;21.49;86.19;101282.47;4162093;28;19929;-70
2023/08/13 02:51:26;;;;;;;;;;;;;;;21.50;86.09;101291.56;4171316;28;20470;-70
2023/08/13 02:53:28;;;;;;;;;;;;;;;21.50;85.88;101289.63;4172471;28;20471;-69
2023/08/13 02:55:30;;;;;;;;;;;;;;;21.51;86.36;101301.47;4172415;28;20840;-70
2023/08/13 02:57:32;;;;;;;;;;;;;;;21.49;86.29;101287.13;4153964;28;20027;-70
2023/08/13 02:59:34;;;;;;;;;;;;;;;21.48;86.20;101291.75;4172590;28;20003;-69
2023/08/13 03:01:38;;;;;;;;;;;;;;;21.48;86.04;101289.00;4154959;28;20012;-70
2023/08/13 03:03:40;;;;;;;;;;;;;;;21.50;85.82;101297.03;4171972;28;20040;-70
2023/08/13 03:05:42;;;;;;;;;;;;;;;21.50;85.90;101295.13;4171621;28;20024;-70
2023/08/13 03:07:44;;;;;;;;;;;;;;;21.50;85.66;101295.13;4162166;28;20035;-70
2023/08/13 03:09:47;;;;;;;;;;;;;;;21.50;85.55;101295.13;4171313;28;19982;-70
2023/08/13 03:11:49;;;;;;;;;;;;;;;21.53;85.79;101293.81;4173011;28;20016;-70
2023/08/13 03:13:52;;;;;;;;;;;;;;;21.51;85.79;101283.06;4154118;28;20015;-69
2023/08/13 03:15:54;;;;;;;;;;;;;;;21.52;85.47;101284.75;4152333;28;20020;-69
2023/08/13 03:17:58;;;;;;;;;;;;;;;21.52;85.54;101283.91;4161762;28;20009;-69
2023/08/13 03:20:03;;;;;;;;;;;;;;;21.53;85.49;101289.16;4159061;28;20032;-70
2023/08/13 03:22:04;;;;;;;;;;;;;;;21.52;85.94;101290.25;4170983;28;20462;-70
2023/08/13 03:24:09;;;;;;;;;;;;;;;21.51;85.80;101290.47;4155420;28;19971;-70
2023/08/13 03:26:11;;;;;;;;;;;;;;;21.50;85.71;101289.63;4145357;28;20016;-70
2023/08/13 03:28:15;;;;;;;;;;;;;;;21.51;85.71;101296.81;4171443;28;20028;-70
2023/08/13 03:30:18;;;;;;;;;;;;;;;21.51;85.71;101294.06;4154333;28;20384;-70
2023/08/13 03:32:20;;;;;;;;;;;;;;;21.52;85.38;101292.13;4173308;28;19967;-70
2023/08/13 03:34:23;;;;;;;;;;;;;;;21.52;85.24;101298.50;4154308;28;20020;-70
2023/08/13 03:36:25;;;;;;;;;;;;;;;21.52;85.47;101298.50;4171737;28;20495;-70
2023/08/13 03:38:27;;;;;;;;;;;;;;;21.53;85.50;101302.91;4176843;28;20019;-70
2023/08/13 03:40:29;;;;;;;;;;;;;;;21.51;85.41;101305.06;4171896;28;20011;-69
2023/08/13 03:42:31;;;;;;;;;;;;;;;21.50;85.74;101308.88;4161321;28;20311;-70
2023/08/13 03:44:33;;;;;;;;;;;;;;;21.48;85.48;101311.00;4172312;28;20379;-70
2023/08/13 03:46:35;;;;;;;;;;;;;;;21.47;85.58;101314.81;4171737;28;20020;-69
2023/08/13 03:48:37;;;;;;;;;;;;;;;21.46;85.74;101318.63;4173448;28;20028;-70
2023/08/13 03:50:44;;;;;;;;;;;;;;;21.45;85.55;101316.97;4172759;28;20373;-70
2023/08/13 03:52:47;;;;;;;;;;;;;;;21.45;85.51;101314.22;4160759;28;20031;-70
2023/08/13 03:54:50;;;;;;;;;;;;;;;21.43;85.47;101310.88;4160961;28;20020;-69
2023/08/13 03:56:52;;;;;;;;;;;;;;;21.42;85.59;101323.75;4153510;28;20040;-70
2023/08/13 03:58:54;;;;;;;;;;;;;;;21.43;85.56;101316.38;4152741;28;20470;-69
2023/08/13 04:00:55;;;;;;;;;;;;;;;21.40;85.70;101316.84;4153176;28;20023;-70
2023/08/13 04:02:57;;;;;;;;;;;;;;;21.37;85.54;101320.88;4171657;28;19929;-69
2023/08/13 04:04:59;;;;;;;;;;;;;;;21.35;85.97;101327.69;4153919;28;20354;-70
2023/08/13 04:07:03;;;;;;;;;;;;;;;21.32;85.91;101319.94;4155174;28;20020;-69
2023/08/13 04:09:05;;;;;;;;;;;;;;;21.29;86.04;101325.88;4171876;28;20016;-69
2023/08/13 04:11:07;;;;;;;;;;;;;;;21.25;86.39;101341.97;4153565;28;20335;-70
2023/08/13 04:13:09;;;;;;;;;;;;;;;21.24;86.28;101341.16;4171797;28;20019;-69
2023/08/13 04:15:11;;;;;;;;;;;;;;;21.23;86.34;101333.97;4154078;28;20021;-70
2023/08/13 04:17:16;;;;;;;;;;;;;;;21.23;86.26;101342.22;4153460;28;20025;-70
2023/08/13 04:19:18;;;;;;;;;;;;;;;21.22;86.35;101342.44;4154369;28;19977;-70
2023/08/13 04:21:20;;;;;;;;;;;;;;;21.18;86.87;101344.00;4171666;28;20016;-70
2023/08/13 04:23:23;;;;;;;;;;;;;;;21.16;86.82;101335.13;4154502;28;19936;-70
2023/08/13 04:25:26;;;;;;;;;;;;;;;21.16;86.84;101337.88;4176185;28;20615;-69
2023/08/13 04:27:27;;;;;;;;;;;;;;;21.15;86.57;101344.47;4170539;28;20024;-69
2023/08/13 04:29:29;;;;;;;;;;;;;;;21.15;86.54;101342.56;4170464;28;20020;-69
2023/08/13 04:31:30;;;;;;;;;;;;;;;21.11;87.33;101344.06;4170176;28;20035;-71
2023/08/13 04:33:32;;;;;;;;;;;;;;;21.09;87.35;101337.16;4161386;28;20023;-70
2023/08/13 04:35:34;;;;;;;;;;;;;;;21.05;87.78;101339.53;4161238;28;20028;-70
2023/08/13 04:37:38;;;;;;;;;;;;;;;21.04;87.57;101335.09;4153263;28;20016;-70
2023/08/13 04:39:42;;;;;;;;;;;;;;;21.05;87.28;101339.53;4152929;28;20028;-70
2023/08/13 04:41:43;;;;;;;;;;;;;;;21.06;87.26;101338.44;4153550;28;20483;-69
2023/08/13 04:43:45;;;;;;;;;;;;;;;21.09;86.94;101339.91;4170514;28;20015;-69
2023/08/13 04:45:48;;;;;;;;;;;;;;;21.10;86.67;101336.94;4160980;28;20019;-71
2023/08/13 04:47:50;;;;;;;;;;;;;;;21.13;86.61;101346.59;4153170;28;20043;-70
2023/08/13 04:49:53;;;;;;;;;;;;;;;21.14;86.71;101356.50;4152616;28;20016;-70
2023/08/13 04:51:55;;;;;;;;;;;;;;;21.16;86.16;101341.50;4152226;28;20388;-70
2023/08/13 04:53:57;;;;;;;;;;;;;;;21.15;86.15;101344.47;4170582;28;20027;-70
2023/08/13 04:56:02;;;;;;;;;;;;;;;21.15;86.35;101349.97;4161024;28;20036;-70
2023/08/13 04:58:05;;;;;;;;;;;;;;;21.16;86.50;101348.88;4161339;28;20024;-70
2023/08/13 05:00:09;;;;;;;;;;;;;;;21.13;86.80;101354.81;4152840;28;19926;-71
2023/08/13 05:02:15;;;;;;;;;;;;;;;21.13;86.61;101346.59;4168990;28;20016;-70
2023/08/13 05:04:17;;;;;;;;;;;;;;;21.13;86.46;101352.09;4170844;28;20035;-69
2023/08/13 05:06:19;;;;;;;;;;;;;;;21.15;86.20;101352.72;4169510;28;19929;-69
2023/08/13 05:08:21;;;;;;;;;;;;;;;21.16;86.42;101351.63;4153241;28;20443;-69
2023/08/13 05:10:23;;;;;;;;;;;;;;;21.17;86.10;101350.56;4153634;28;19975;-70
2023/08/13 05:12:27;;;;;;;;;;;;;;;21.17;85.90;101350.56;4170278;28;20810;-69
2023/08/13 05:14:29;;;;;;;;;;;;;;;21.18;86.23;101349.50;4160499;28;20031;-69
2023/08/13 05:16:32;;;;;;;;;;;;;;;21.19;86.07;101362.13;4177349;28;20474;-70
2023/08/13 05:18:34;;;;;;;;;;;;;;;21.18;86.43;101361.31;4154352;28;20033;-70
2023/08/13 05:20:35;;;;;;;;;;;;;;;21.16;86.56;101354.38;4171034;28;20024;-71
2023/08/13 05:22:37;;;;;;;;;;;;;;;21.15;86.45;101353.53;4159935;28;20595;-70
2023/08/13 05:24:38;;;;;;;;;;;;;;;21.17;85.79;101359.63;4152159;28;20428;-69
2023/08/13 05:26:40;;;;;;;;;;;;;;;21.17;85.57;101356.06;4160636;28;20016;-70
2023/08/13 05:28:42;;;;;;;;;;;;;;;21.17;85.43;101359.63;4171376;28;20019;-69
2023/08/13 05:30:44;;;;;;;;;;;;;;;21.17;85.22;101361.53;4153378;28;20027;-70
2023/08/13 05:32:48;;;;;;;;;;;;;;;21.17;85.29;101365.13;4159853;28;20427;-71
2023/08/13 05:34:50;;;;;;;;;;;;;;;21.20;85.19;101372.06;4170453;28;20000;-70
2023/08/13 05:36:53;;;;;;;;;;;;;;;21.20;85.33;101369.31;4152068;28;20019;-70
2023/08/13 05:38:55;;;;;;;;;;;;;;;21.19;85.49;101376.72;4160550;28;20032;-69
2023/08/13 05:40:58;;;;;;;;;;;;;;;21.18;85.20;101377.78;4154572;28;20024;-69
2023/08/13 05:43:00;;;;;;;;;;;;;;;21.19;85.08;101384.97;4155843;28;20032;-69
2023/08/13 05:45:05;;;;;;;;;;;;;;;21.19;84.52;101378.63;4155862;28;20008;-69
2023/08/13 05:47:07;;;;;;;;;;;;;;;21.18;83.59;101377.78;4154929;28;20008;-70
2023/08/13 05:49:09;;;;;;;;;;;;;;;21.18;83.41;101374.22;4162652;28;20622;-71
2023/08/13 05:51:11;;;;;;;;;;;;;;;21.20;83.71;101377.56;4163000;28;20015;-69
2023/08/13 05:53:13;;;;;;;;;;;;;;;21.22;83.82;101379.00;4174075;28;20570;-70
2023/08/13 05:55:15;;;;;;;;;;;;;;;21.24;83.46;101378.78;4155310;28;19933;-70
2023/08/13 05:57:16;;;;;;;;;;;;;;;21.26;83.57;101375.81;4173954;28;20008;-70
2023/08/13 05:59:18;;;;;;;;;;;;;;;21.28;83.20;101370.91;4172819;28;20041;-70
2023/08/13 06:01:22;;;;;;;;;;;;;;;21.30;82.75;101371.50;4173706;28;20019;-70
2023/08/13 06:03:30;;;;;;;;;;;;;;;21.32;82.55;101378.44;4173299;28;20411;-70
2023/08/13 06:05:51;;;;;;;;;;;;;;;21.33;81.88;101379.28;4139142;28;19926;-70
2023/08/13 06:11:28;;;;;;;;;;;;;;;21.32;82.85;101383.94;4158412;28;19987;-70
2023/08/13 06:13:58;;;;;;;;;;;;;;;21.33;82.82;101390.25;4154264;28;20299;-70
2023/08/13 06:16:11;;;;;;;;;;;;;;;21.33;82.57;101384.78;4156150;28;19931;-71
2023/08/13 06:18:36;;;;;;;;;;;;;;;21.34;82.47;101387.28;4157418;28;19933;-71
2023/08/13 06:21:16;;;;;;;;;;;;;;;;;;;;;
2023/08/13 06:33:50;;;;;;;;;;;;;;;21.34;81.77;101390.03;4155488;28;20418;-70
2023/08/13 06:36:22;;;;;;;;;;;;;;;21.34;82.41;101395.53;4170625;28;19924;-69
2023/08/13 06:38:39;;;;;;;;;;;;;;;21.35;82.98;101401.88;4170602;28;19983;-70
2023/08/13 06:43:56;;;;;;;;;;;;;;;21.32;84.02;101405.91;4120291;28;19931;-71
2023/08/13 06:51:51;;;;;;;;;;;;;;;21.33;83.20;101407.59;4152888;28;19940;-71
2023/08/13 06:59:36;;;;;;;;;;;;;;;21.31;82.46;101398.75;4140258;28;19925;-70
2023/08/13 07:02:02;;;;;;;;;;;;;;;21.31;81.12;101403.41;4136777;28;19964;-70
2023/08/13 07:04:29;;;;;;;;;;;;;;;21.32;81.09;101402.34;4128720;28;20364;-70
2023/08/13 07:07:07;;;;;;;;;;;;;;;21.33;80.67;101399.38;4137996;28;19953;-70
2023/08/13 07:10:02;;;;;;;;;;;;;;;21.36;80.88;101406.28;4136143;28;19929;-71
2023/08/13 07:12:08;;;;;;;;;;;;;;;21.36;80.33;101412.63;4154717;28;20004;-71
2023/08/13 07:14:11;;;;;;;;;;;;;;;21.37;80.11;101413.47;4154988;28;20020;-70
2023/08/13 07:16:42;;;;;;;;;;;;;;;21.37;79.46;101413.47;4154806;28;19933;-71
2023/08/13 07:19:06;;;;;;;;;;;;;;;21.37;79.37;101403.31;4159548;28;19951;-70
2023/08/13 07:21:11;;;;;;;;;;;;;;;21.37;79.47;101407.97;4130379;28;20024;-71
2023/08/13 07:23:13;;;;;;;;;;;;;;;21.39;79.50;101405.81;4150105;28;20028;-71
2023/08/13 07:25:15;;;;;;;;;;;;;;;21.39;79.72;101398.44;4151549;28;20012;-70
2023/08/13 07:27:17;;;;;;;;;;;;;;;21.41;79.57;101400.91;4183267;28;20020;-70
2023/08/13 07:29:22;;;;;;;;;;;;;;;21.41;79.36;101400.91;4188898;28;20024;-70
2023/08/13 07:31:34;;;;;;;;;;;;;;;21.42;79.48;101399.84;4171053;28;19926;-71
2023/08/13 07:33:39;;;;;;;;;;;;;;;21.42;79.25;101399.84;4204154;28;19964;-72
2023/08/13 07:35:41;;;;;;;;;;;;;;;21.43;78.68;101405.13;4189430;28;20420;-71
2023/08/13 07:37:45;;;;;;;;;;;;;;;21.45;78.61;101415.06;4186352;28;20386;-71
2023/08/13 07:39:46;;;;;;;;;;;;;;;21.48;78.85;101407.16;4185768;28;20003;-71
2023/08/13 07:41:49;;;;;;;;;;;;;;;21.51;77.89;101405.91;4170134;28;20047;-71
2023/08/13 07:43:57;;;;;;;;;;;;;;;21.54;78.82;101400.78;4188360;28;20011;-71
2023/08/13 07:46:10;;;;;;;;;;;;;;;21.59;78.58;101416.56;4187381;28;19959;-69
2023/08/13 07:48:12;;;;;;;;;;;;;;;21.61;78.10;101417.16;4187638;28;20027;-70
2023/08/13 07:50:14;;;;;;;;;;;;;;;21.63;77.64;101411.44;4203291;28;20490;-71
2023/08/13 07:52:17;;;;;;;;;;;;;;;21.62;76.38;101410.59;4186694;28;19929;-70
2023/08/13 07:54:27;;;;;;;;;;;;;;;21.67;78.15;101412.66;4187278;28;20019;-71
2023/08/13 07:56:39;;;;;;;;;;;;;;;21.69;76.60;101408.59;4186418;28;19929;-71
2023/08/13 07:58:41;;;;;;;;;;;;;;;21.69;75.16;101419.59;4183807;28;20394;-71
2023/08/13 08:00:48;;;;;;;;;;;;;;;21.70;73.94;101415.75;4186266;28;20018;-70
2023/08/13 08:02:50;;;;;;;;;;;;;;;21.74;73.81;101419.72;4187399;28;20139;-70
2023/08/13 08:04:55;;;;;;;;;;;;;;;21.78;75.36;101420.06;4187859;28;20460;-71
2023/08/13 08:07:02;;;;;;;;;;;;;;;21.79;74.30;101419.00;4186413;28;20023;-70
2023/08/13 08:09:05;;;;;;;;;;;;;;;21.81;72.62;101413.28;4170277;28;20494;-70
2023/08/13 08:11:11;;;;;;;;;;;;;;;21.81;70.95;101414.09;4182065;28;20817;-70
2023/08/13 08:15:41;;;;;;;;;;;;;;;21.86;70.49;101416.16;4166430;28;19935;-71
2023/08/13 08:17:43;;;;;;;;;;;;;;;21.89;70.64;101422.00;4185582;28;20036;-71
2023/08/13 08:19:45;;;;;;;;;;;;;;;21.90;68.89;101409.13;4181495;28;19992;-71
2023/08/13 08:21:47;;;;;;;;;;;;;;;21.92;70.39;101412.47;4184384;28;20020;-70
2023/08/13 08:23:50;;;;;;;;;;;;;;;21.96;69.74;101413.66;4185581;28;20015;-72
2023/08/13 08:25:52;;;;;;;;;;;;;;;21.99;70.42;101413.19;4185806;28;20016;-69
2023/08/13 08:31:42;;;;;;;;;;;;;;;22.04;67.15;101409.75;4149722;28;20314;-71
2023/08/13 08:34:02;;;;;;;;;;;;;;;22.06;66.99;101410.31;4118612;28;19926;-70
2023/08/13 08:39:04;;;;;;;;;;;;;;;22.09;67.32;101410.69;4178006;28;19964;-72
2023/08/13 08:41:29;;;;;;;;;;;;;;;22.12;67.10;101412.13;4187461;28;19968;-70
2023/08/13 08:43:49;;;;;;;;;;;;;;;22.16;67.63;101418.81;4169100;28;19929;-70
2023/08/13 08:45:54;;;;;;;;;;;;;;;22.18;68.18;101418.56;4187325;28;20023;-70
2023/08/13 08:48:03;;;;;;;;;;;;;;;22.19;68.03;101412.84;4187157;28;19925;-72
2023/08/13 08:50:06;;;;;;;;;;;;;;;22.20;67.31;101410.94;4186692;28;19967;-70
2023/08/13 08:52:11;;;;;;;;;;;;;;;22.22;68.56;101408.78;4169322;28;19929;-70
2023/08/13 08:54:12;;;;;;;;;;;;;;;22.24;69.29;101407.47;4183687;28;19925;-71
2023/08/13 08:56:17;;;;;;;;;;;;;;;22.26;69.31;101410.81;4186461;28;20019;-71
2023/08/13 08:58:19;;;;;;;;;;;;;;;22.30;70.02;101412.06;4152814;28;20016;-71
2023/08/13 09:00:21;;;;;;;;;;;;;;;22.32;69.80;101406.31;4168414;28;20019;-70
2023/08/13 09:02:22;;;;;;;;;;;;;;;22.35;69.38;101404.97;4169686;28;20410;-71
2023/08/13 09:04:26;;;;;;;;;;;;;;;22.37;69.27;101413.84;4187143;28;19931;-70
2023/08/13 09:06:43;;;;;;;;;;;;;;;22.42;69.79;101408.47;4181909;28;19925;-71
2023/08/13 09:08:53;;;;;;;;;;;;;;;22.44;70.18;101409.03;4186658;28;19934;-71
2023/08/13 09:10:55;;;;;;;;;;;;;;;22.46;70.52;101410.50;4184665;28;20359;-69
2023/08/13 09:13:00;;;;;;;;;;;;;;;22.48;68.93;101413.81;4187337;28;20348;-69
2023/08/13 09:15:08;;;;;;;;;;;;;;;22.50;68.31;101408.09;4202819;28;20023;-70
2023/08/13 09:17:20;;;;;;;;;;;;;;;22.52;68.29;101411.44;4169595;28;20023;-71
2023/08/13 09:19:22;;;;;;;;;;;;;;;22.53;67.38;101410.34;4171703;28;19925;-71
2023/08/13 09:21:32;;;;;;;;;;;;;;;22.55;66.94;101408.19;4190202;28;20012;-71
2023/08/13 09:23:55;;;;;;;;;;;;;;;22.57;68.09;101407.94;4189150;28;19936;-71
2023/08/13 09:25:58;;;;;;;;;;;;;;;22.58;67.93;101404.97;4189457;28;19935;-71
2023/08/13 09:28:08;;;;;;;;;;;;;;;22.60;68.18;101399.22;4189791;28;20023;-70
2023/08/13 09:30:11;;;;;;;;;;;;;;;22.62;68.21;101397.91;4172060;28;20011;-69
2023/08/13 09:32:13;;;;;;;;;;;;;;;22.63;67.77;101398.72;4189481;28;20047;-71
2023/08/13 09:34:15;;;;;;;;;;;;;;;22.65;67.94;101402.09;4190304;28;20019;-71
2023/08/13 09:39:17;;;;;;;;;;;;;;;22.66;67.40;101381.72;4186700;28;20686;-71
2023/08/13 09:41:22;;;;;;;;;;;;;;;22.67;67.72;101377.91;4206526;28;19966;-71
2023/08/13 09:43:24;;;;;;;;;;;;;;;22.69;67.55;101386.75;4190157;28;20018;-70
2023/08/13 09:45:26;;;;;;;;;;;;;;;22.71;66.65;101381.00;4190247;28;20036;-71
2023/08/13 09:47:28;;;;;;;;;;;;;;;22.73;67.18;101382.44;4189989;28;19971;-71
2023/08/13 09:49:31;;;;;;;;;;;;;;;22.74;66.58;101377.75;4189569;28;19996;-72
2023/08/13 09:51:35;;;;;;;;;;;;;;;22.75;66.80;101384.97;4189626;28;20365;-70
2023/08/13 09:53:40;;;;;;;;;;;;;;;22.76;66.54;101384.72;4190179;28;19924;-70
2023/08/13 09:55:45;;;;;;;;;;;;;;;22.77;66.66;101380.03;4189495;28;20023;-71
2023/08/13 09:57:46;;;;;;;;;;;;;;;22.79;66.91;101391.63;4190065;28;20000;-71
2023/08/13 09:59:48;;;;;;;;;;;;;;;22.79;66.00;101391.63;4189675;28;20009;-70
2023/08/13 10:01:50;;;;;;;;;;;;;;;22.80;65.88;101382.28;4189947;28;20459;-71
2023/08/13 10:03:52;;;;;;;;;;;;;;;22.83;66.28;101382.63;4187032;28;20016;-71
2023/08/13 10:05:54;;;;;;;;;;;;;;;22.84;65.91;101386.25;4189820;28;20036;-71
2023/08/13 10:07:57;;;;;;;;;;;;;;;22.85;66.03;101386.00;4189885;28;20041;-69
2023/08/13 10:09:59;;;;;;;;;;;;;;;22.86;65.79;101378.56;4185446;28;20086;-72
2023/08/13 10:12:02;;;;;;;;;;;;;;;22.88;65.70;101376.41;4187496;28;20026;-70
2023/08/13 10:14:05;;;;;;;;;;;;;;;22.90;65.60;101376.16;4187518;28;20027;-71
2023/08/13 10:16:06;;;;;;;;;;;;;;;22.91;65.68;101378.66;4189583;28;20426;-70
2023/08/13 10:18:09;;;;;;;;;;;;;;;22.92;65.45;101380.34;4171149;28;19928;-70
2023/08/13 10:20:11;;;;;;;;;;;;;;;22.93;65.64;101373.78;4186947;28;20015;-71
2023/08/13 10:22:13;;;;;;;;;;;;;;;22.96;65.25;101375.19;4190131;28;20007;-70
2023/08/13 10:24:16;;;;;;;;;;;;;;;22.98;65.51;101384.06;4189403;28;20020;-71
2023/08/13 10:26:18;;;;;;;;;;;;;;;22.99;65.71;101378.31;4171322;28;20535;-70
2023/08/13 10:28:22;;;;;;;;;;;;;;;23.01;65.03;101378.06;4187154;28;19924;-70
2023/08/13 10:30:24;;;;;;;;;;;;;;;23.03;65.34;101376.72;4188554;28;20031;-71
2023/08/13 10:32:27;;;;;;;;;;;;;;;23.05;65.38;101381.97;4184652;28;20061;-70
2023/08/13 10:34:38;;;;;;;;;;;;;;;23.07;65.05;101378.97;4186053;28;20019;-70
2023/08/13 10:36:43;;;;;;;;;;;;;;;23.09;64.92;101379.59;4187994;28;20012;-71
2023/08/13 10:38:45;;;;;;;;;;;;;;;23.11;64.97;101381.03;4189300;28;20027;-71
2023/08/13 10:40:57;;;;;;;;;;;;;;;23.13;65.40;101381.63;4188630;28;20474;-71
2023/08/13 10:42:59;;;;;;;;;;;;;;;23.14;64.77;101387.97;4188856;28;20023;-72
2023/08/13 10:45:02;;;;;;;;;;;;;;;23.16;64.65;101385.81;4188830;28;20007;-71
2023/08/13 10:47:04;;;;;;;;;;;;;;;23.18;64.92;101383.63;4188317;28;20386;-71
2023/08/13 10:49:06;;;;;;;;;;;;;;;23.18;64.68;101381.75;4188098;28;19935;-70
2023/08/13 10:51:08;;;;;;;;;;;;;;;23.21;64.77;101380.38;4187535;28;20020;-70
2023/08/13 10:53:11;;;;;;;;;;;;;;;23.23;64.24;101391.16;4186520;28;20016;-71
2023/08/13 10:55:12;;;;;;;;;;;;;;;23.25;64.08;101381.59;4188617;28;20027;-71
2023/08/13 10:57:14;;;;;;;;;;;;;;;23.28;64.02;101389.34;4188861;28;20453;-70
2023/08/13 10:59:16;;;;;;;;;;;;;;;23.30;63.33;101389.94;4189402;28;20023;-70
2023/08/13 11:01:20;;;;;;;;;;;;;;;23.33;63.58;101385.88;4188748;28;20039;-70
2023/08/13 11:03:22;;;;;;;;;;;;;;;23.34;63.51;101390.31;4184443;28;20024;-71
2023/08/13 11:05:27;;;;;;;;;;;;;;;23.36;63.50;101388.13;4188463;28;20027;-71
2023/08/13 11:07:29;;;;;;;;;;;;;;;23.36;63.23;101388.94;4188324;28;20022;-70
2023/08/13 11:09:30;;;;;;;;;;;;;;;23.38;63.04;101381.25;4188858;28;19981;-69
2023/08/13 11:11:32;;;;;;;;;;;;;;;23.38;63.30;101392.28;4188394;28;19974;-70
2023/08/13 11:13:34;;;;;;;;;;;;;;;23.41;62.88;101381.88;4188800;28;20011;-70
2023/08/13 11:15:36;;;;;;;;;;;;;;;23.41;62.87;101379.94;4188614;28;20031;-71
2023/08/13 11:17:41;;;;;;;;;;;;;;;23.43;62.69;101383.28;4188161;28;20039;-70
2023/08/13 11:19:43;;;;;;;;;;;;;;;23.46;62.43;101387.47;4184855;28;20434;-71
2023/08/13 11:21:47;;;;;;;;;;;;;;;23.49;62.44;101389.72;4188170;28;20011;-71